Time;durP1;ratioP1;P1;durP2;ratioP2;P2;SDS_P1;SDS_P2;PMS_P1;PMS_P2;Temp;Humidity;BMP_temperature;BMP_pressure;BME280_temperature;BME280_humidity;BME280_pressure;Samples;Min_cycle;Max_cycle;Signal;HPM_P1;HPM_P2
2023/12/23 00:00:20;;;;;;;;;3.00;1.33;;;;;10.65;74.46;101503.66;5115204;27;45467;-78
2023/12/23 00:02:45;;;;;;;;;5.00;2.00;;;;;10.81;74.32;101544.94;5115829;27;45435;-68
2023/12/23 00:05:11;;;;;;;;;2.00;2.00;;;;;10.81;74.23;101544.94;5114240;27;46338;-72
2023/12/23 00:07:36;;;;;;;;;4.00;1.00;;;;;10.88;74.38;101562.50;5117482;27;45522;-77
2023/12/23 00:10:03;;;;;;;;;1.00;1.00;;;;;10.73;74.34;101551.84;5115895;27;45341;-74
2023/12/23 00:12:29;;;;;;;;;2.00;1.00;;;;;10.92;74.92;101584.41;5111702;27;45412;-75
2023/12/23 00:14:55;;;;;;;;;2.00;2.00;;;;;10.90;74.78;101580.91;5107650;27;45533;-71
2023/12/23 00:17:21;;;;;;;;;3.00;1.00;;;;;10.88;75.18;101566.88;5110023;27;45183;-73
2023/12/23 00:19:47;;;;;;;;;1.00;1.00;;;;;10.84;75.37;101563.31;5115105;27;45530;-75
2023/12/23 00:22:13;;;;;;;;;3.00;1.00;;;;;10.88;74.99;101572.13;5113290;27;45380;-66
2023/12/23 00:24:38;;;;;;;;;2.00;2.00;;;;;10.94;74.95;101575.72;5118440;27;45472;-67
2023/12/23 00:27:04;;;;;;;;;2.00;1.00;;;;;10.88;74.81;101567.75;5118826;27;45766;-69
2023/12/23 00:29:30;;;;;;;;;3.00;1.00;;;;;10.99;74.71;101584.53;5118314;27;45414;-68
2023/12/23 00:31:56;;;;;;;;;1.00;1.00;;;;;10.91;75.27;101575.66;5119203;27;45396;-65
2023/12/23 00:34:21;;;;;;;;;0.33;0.33;;;;;10.99;75.12;101591.50;5119464;27;45531;-65
2023/12/23 00:36:47;;;;;;;;;2.00;0.33;;;;;10.96;75.00;101586.19;5118443;27;45424;-66
2023/12/23 00:39:13;;;;;;;;;1.00;1.00;;;;;10.98;75.19;101589.72;5118520;27;45546;-66
2023/12/23 00:41:38;;;;;;;;;3.00;1.00;;;;;10.98;75.43;101590.59;5117759;27;45840;-66
2023/12/23 00:44:04;;;;;;;;;3.00;1.33;;;;;10.94;76.35;101586.19;5117832;27;46166;-65
2023/12/23 00:47:06;;;;;;;;;1.00;1.00;;;;;10.97;76.11;101587.97;5118878;27;45283;-75
2023/12/23 00:49:32;;;;;;;;;2.00;0.00;;;;;10.89;76.52;101587.88;5100473;27;45383;-69
2023/12/23 00:52:04;;;;;;;;;3.00;2.00;;;;;10.97;76.25;101586.22;5118462;27;45459;-67
2023/12/23 00:54:34;;;;;;;;;3.00;1.00;;;;;10.72;76.57;101536.94;5118319;27;45560;-70
2023/12/23 00:56:59;;;;;;;;;1.67;0.00;;;;;10.99;76.87;101587.16;5117913;27;45434;-72
2023/12/23 00:59:25;;;;;;;;;3.67;1.00;;;;;11.01;76.17;101592.41;5118124;27;45436;-76
2023/12/23 01:01:50;;;;;;;;;1.67;1.00;;;;;10.97;76.70;101588.84;5119679;27;45422;-74
2023/12/23 01:04:16;;;;;;;;;1.00;1.00;;;;;10.85;76.45;101554.63;5118511;27;46233;-67
2023/12/23 01:06:42;;;;;;;;;5.00;1.00;;;;;10.99;76.28;101579.28;5118666;27;45320;-67
2023/12/23 01:09:07;;;;;;;;;1.33;1.00;;;;;10.97;75.89;101578.38;5117323;27;45412;-69
2023/12/23 01:11:33;;;;;;;;;2.67;1.00;;;;;10.92;75.57;101579.19;5118558;27;45312;-74
2023/12/23 01:13:58;;;;;;;;;1.00;1.00;;;;;10.94;75.18;101564.31;5116010;27;45544;-66
2023/12/23 01:16:24;;;;;;;;;1.33;1.00;;;;;10.89;75.55;101564.28;5117217;27;45506;-70
2023/12/23 01:18:49;;;;;;;;;3.00;1.00;;;;;10.74;75.33;101538.72;5119346;27;45462;-66
2023/12/23 01:21:15;;;;;;;;;1.00;1.00;;;;;10.84;75.54;101563.31;5118005;27;45623;-72
2023/12/23 01:23:41;;;;;;;;;1.00;1.00;;;;;10.88;75.44;101573.00;5117639;27;45868;-70
2023/12/23 01:26:08;;;;;;;;;1.00;1.00;;;;;10.87;75.07;101578.22;5117975;27;45429;-66
2023/12/23 01:28:33;;;;;;;;;0.67;0.67;;;;;10.82;75.18;101570.31;5118027;27;45400;-66
2023/12/23 01:30:59;;;;;;;;;1.33;1.00;;;;;10.81;74.77;101569.41;5117682;27;45228;-66
2023/12/23 01:33:24;;;;;;;;;0.67;0.67;;;;;10.81;74.57;101582.50;5117733;27;45987;-67
2023/12/23 01:35:50;;;;;;;;;1.00;1.00;;;;;10.71;74.89;101553.53;5117134;27;46051;-66
2023/12/23 01:38:19;;;;;;;;;3.67;1.67;;;;;10.73;74.09;101565.81;5115503;27;45461;-65
2023/12/23 01:40:45;;;;;;;;;3.00;0.00;;;;;10.88;74.73;101588.72;5108444;27;45498;-65
2023/12/23 01:43:11;;;;;;;;;3.67;0.00;;;;;10.81;74.59;101586.88;5102568;27;46042;-68
2023/12/23 01:45:36;;;;;;;;;0.67;0.67;;;;;10.86;74.25;101595.69;5100786;27;45515;-65
2023/12/23 01:48:04;;;;;;;;;0.00;0.00;;;;;10.88;74.45;101580.00;5116148;27;45453;-68
2023/12/23 01:50:29;;;;;;;;;2.00;0.33;;;;;10.91;74.20;101580.91;5105805;27;45626;-65
2023/12/23 01:52:56;;;;;;;;;1.00;1.00;;;;;10.80;74.09;101551.94;5107038;27;45596;-64
2023/12/23 01:55:26;;;;;;;;;1.00;1.00;;;;;11.01;73.88;101576.69;5114692;27;45440;-68
2023/12/23 01:57:53;;;;;;;;;2.00;0.00;;;;;10.95;74.17;101548.63;5110863;27;45411;-66
2023/12/23 02:00:20;;;;;;;;;1.67;1.00;;;;;11.02;73.88;101554.84;5112774;27;45766;-69
2023/12/23 02:02:47;;;;;;;;;2.00;0.33;;;;;11.03;73.85;101562.75;5114254;27;45494;-69
2023/12/23 02:05:13;;;;;;;;;1.67;1.00;;;;;11.03;73.10;101573.22;5110308;27;45431;-68
2023/12/23 02:07:45;;;;;;;;;0.00;0.00;;;;;10.93;73.23;101550.34;5121956;27;45576;-75
2023/12/23 02:10:13;;;;;;;;;0.00;0.00;;;;;10.96;73.27;101550.41;5121608;27;45620;-76
2023/12/23 02:13:13;;;;;;;;;4.00;0.67;;;;;11.06;72.78;101554.03;5124295;27;46349;-78
2023/12/23 02:16:24;;;;;;;;;2.33;0.00;;;;;10.97;72.56;101536.44;5110021;27;45385;-70
2023/12/23 02:18:50;;;;;;;;;1.00;0.00;;;;;10.97;72.65;101536.44;5095006;27;45395;-68
2023/12/23 02:21:15;;;;;;;;;0.00;0.00;;;;;10.97;72.18;101530.31;5108125;27;45501;-70
2023/12/23 02:23:45;;;;;;;;;0.33;0.33;;;;;11.08;72.30;101538.31;5117757;27;46145;-66
2023/12/23 02:26:14;;;;;;;;;0.00;0.00;;;;;11.10;71.80;101541.81;5111088;27;45557;-65
2023/12/23 02:28:41;;;;;;;;;0.00;0.00;;;;;11.08;71.77;101546.16;5100797;27;45392;-67
2023/12/23 02:31:10;;;;;;;;;0.00;0.00;;;;;11.05;71.25;101544.38;5108021;27;46400;-65
2023/12/23 02:33:37;;;;;;;;;1.00;0.00;;;;;10.83;71.30;101510.03;5116648;27;47783;-70
2023/12/23 02:36:03;;;;;;;;;0.00;0.00;;;;;11.11;71.54;101548.84;5113107;27;45453;-67
2023/12/23 02:38:29;;;;;;;;;2.00;0.00;;;;;10.97;71.18;101531.19;5115647;27;45491;-66
2023/12/23 02:40:54;;;;;;;;;0.00;0.00;;;;;10.74;70.63;101488.06;5120981;27;45699;-66
2023/12/23 02:43:20;;;;;;;;;0.67;0.00;;;;;11.12;70.69;101540.97;5109896;27;45480;-66
2023/12/23 02:45:45;;;;;;;;;0.00;0.00;;;;;11.04;70.71;101522.53;5121398;27;45714;-67
2023/12/23 02:48:11;;;;;;;;;0.00;0.00;;;;;11.19;70.00;101539.31;5121987;27;45455;-65
2023/12/23 02:50:37;;;;;;;;;2.00;0.00;;;;;11.12;69.92;101535.75;5121600;27;45639;-66
2023/12/23 02:53:03;;;;;;;;;1.00;0.00;;;;;11.12;69.91;101540.97;5121336;27;46011;-69
2023/12/23 02:55:28;;;;;;;;;0.00;0.00;;;;;11.14;69.92;101536.66;5110964;27;45276;-67
2023/12/23 02:57:54;;;;;;;;;0.33;0.00;;;;;10.99;70.37;101519.00;5119248;27;45353;-67
2023/12/23 03:00:20;;;;;;;;;0.00;0.00;;;;;11.12;69.47;101527.00;5112374;27;45548;-69
2023/12/23 03:02:46;;;;;;;;;2.33;0.00;;;;;11.12;69.94;101534.88;5121373;27;45344;-69
2023/12/23 03:05:11;;;;;;;;;0.33;0.00;;;;;11.16;69.60;101544.53;5122091;27;45326;-66
2023/12/23 03:07:37;;;;;;;;;0.00;0.00;;;;;11.05;69.62;101531.28;5121953;27;45294;-67
2023/12/23 03:10:03;;;;;;;;;0.00;0.00;;;;;11.11;69.56;101546.22;5116403;27;45466;-65
2023/12/23 03:12:29;;;;;;;;;0.00;0.00;;;;;11.17;69.22;101548.91;5104192;27;47391;-67
2023/12/23 03:14:56;;;;;;;;;0.00;0.00;;;;;11.08;69.57;101539.22;5119506;27;45512;-75
2023/12/23 03:17:22;;;;;;;;;1.33;0.00;;;;;11.18;69.26;101563.81;5113365;27;45517;-66
2023/12/23 03:19:48;;;;;;;;;0.00;0.00;;;;;11.15;69.06;101558.50;5114648;27;45548;-67
2023/12/23 03:22:13;;;;;;;;;0.00;0.00;;;;;11.19;69.17;101558.56;5106499;27;46392;-76
2023/12/23 03:24:39;;;;;;;;;0.00;0.00;;;;;11.18;68.95;101567.28;5119182;27;45720;-76
2023/12/23 03:27:04;;;;;;;;;0.00;0.00;;;;;11.10;69.50;101547.06;5120725;27;45534;-66
2023/12/23 03:29:30;;;;;;;;;0.00;0.00;;;;;11.25;69.27;101565.63;5120750;27;45442;-72
2023/12/23 03:31:58;;;;;;;;;0.00;0.00;;;;;11.28;69.12;101562.16;5120271;27;46294;-70
2023/12/23 03:34:24;;;;;;;;;0.67;0.00;;;;;11.27;68.43;101549.91;5108268;27;45368;-71
2023/12/23 03:36:49;;;;;;;;;0.00;0.00;;;;;11.24;68.64;101549.00;5114382;27;45543;-77
2023/12/23 03:39:15;;;;;;;;;0.00;0.00;;;;;10.96;68.47;101498.00;5122476;27;45466;-78
2023/12/23 03:41:41;;;;;;;;;2.67;0.00;;;;;11.20;68.75;101526.25;5115433;27;45538;-79
2023/12/23 03:44:06;;;;;;;;;0.33;0.00;;;;;11.12;68.70;101495.53;5118107;27;45322;-66
2023/12/23 03:46:32;;;;;;;;;0.00;0.00;;;;;11.17;68.49;101489.47;5119680;27;45630;-75
2023/12/23 03:48:57;;;;;;;;;0.00;0.00;;;;;11.14;68.68;101485.97;5110611;27;45408;-73
2023/12/23 03:51:30;;;;;;;;;0.00;0.00;;;;;11.12;68.63;101479.81;5120435;27;45920;-73
2023/12/23 03:53:55;;;;;;;;;0.00;0.00;;;;;11.14;68.78;101483.34;5104198;27;45435;-70
2023/12/23 03:56:21;;;;;;;;;0.00;0.00;;;;;11.18;68.85;101498.25;5119416;27;45863;-66
2023/12/23 03:58:47;;;;;;;;;0.33;0.00;;;;;11.16;68.86;101503.47;5101164;27;45361;-68
2023/12/23 04:01:15;;;;;;;;;0.33;0.00;;;;;11.12;69.29;101506.03;5120074;27;45556;-66
2023/12/23 04:03:41;;;;;;;;;0.00;0.00;;;;;11.11;69.28;101514.78;5119371;27;45518;-76
2023/12/23 04:06:07;;;;;;;;;0.00;0.00;;;;;11.11;69.44;101518.25;5118803;27;45331;-72
2023/12/23 04:08:33;;;;;;;;;0.00;0.00;;;;;11.04;69.46;101506.81;5121164;27;45439;-67
2023/12/23 04:10:59;;;;;;;;;0.00;0.00;;;;;10.91;69.78;101491.78;5119367;27;45466;-66
2023/12/23 04:13:24;;;;;;;;;0.00;0.00;;;;;10.99;69.57;101491.91;5119273;27;45290;-69
2023/12/23 04:15:50;;;;;;;;;1.00;0.00;;;;;11.06;69.64;101513.81;5117836;27;45416;-66
2023/12/23 04:18:15;;;;;;;;;1.00;0.00;;;;;11.00;70.03;101496.28;5118853;27;45714;-65
2023/12/23 04:20:41;;;;;;;;;0.00;0.00;;;;;11.05;70.17;101486.72;5114047;27;47580;-69
2023/12/23 04:23:06;;;;;;;;;0.00;0.00;;;;;10.92;70.42;101459.50;5109865;27;45400;-75
2023/12/23 04:25:32;;;;;;;;;0.67;0.00;;;;;10.94;71.32;101464.72;5119151;27;45473;-77
2023/12/23 04:27:57;;;;;;;;;1.67;0.00;;;;;10.90;72.17;101462.94;5119361;27;45411;-70
2023/12/23 04:30:23;;;;;;;;;0.00;0.00;;;;;10.91;72.93;101469.94;5118839;27;46149;-69
2023/12/23 04:32:48;;;;;;;;;0.00;0.00;;;;;10.73;73.96;101439.16;5118116;27;45298;-66
2023/12/23 04:35:14;;;;;;;;;0.00;0.00;;;;;10.93;74.17;101490.06;5119103;27;45283;-67
2023/12/23 04:37:41;;;;;;;;;0.00;0.00;;;;;10.92;75.07;101484.81;5119406;27;45293;-71
2023/12/23 04:40:08;;;;;;;;;0.00;0.00;;;;;10.90;75.07;101486.53;5115664;27;46574;-66
2023/12/23 04:42:34;;;;;;;;;1.67;0.00;;;;;10.84;75.20;101487.31;5115758;27;45471;-68
2023/12/23 04:44:59;;;;;;;;;0.00;0.00;;;;;10.77;75.45;101480.25;5117920;27;45404;-66
2023/12/23 04:47:25;;;;;;;;;1.00;0.00;;;;;10.93;75.26;101499.69;5118599;27;45536;-65
2023/12/23 04:49:50;;;;;;;;;5.67;3.00;;;;;10.93;75.41;101497.06;5118273;27;46313;-67
2023/12/23 04:52:17;;;;;;;;;0.00;0.00;;;;;10.93;75.34;101491.81;5115188;27;45490;-71
2023/12/23 04:54:42;;;;;;;;;4.00;2.00;;;;;10.88;75.17;101470.78;5117306;27;45662;-74
2023/12/23 04:57:08;;;;;;;;;0.00;0.00;;;;;10.93;74.69;101478.72;5119683;27;45393;-68
2023/12/23 04:59:33;;;;;;;;;2.00;0.00;;;;;10.95;74.74;101492.72;5118066;27;46603;-68
2023/12/23 05:01:59;;;;;;;;;0.00;0.00;;;;;10.91;74.34;101478.69;5116937;27;45506;-65
2023/12/23 05:04:25;;;;;;;;;1.33;0.67;;;;;10.92;73.73;101488.31;5118418;27;45537;-73
2023/12/23 05:06:57;;;;;;;;;1.00;0.00;;;;;10.91;73.83;101488.28;5112931;27;45478;-73
2023/12/23 05:09:23;;;;;;;;;1.00;0.00;;;;;10.92;73.81;101496.19;5114409;27;47731;-71
2023/12/23 05:11:48;;;;;;;;;0.67;0.00;;;;;10.91;73.23;101490.91;5118354;27;45515;-67
2023/12/23 05:14:14;;;;;;;;;2.00;0.00;;;;;10.94;73.06;101490.94;5115178;27;45594;-73
2023/12/23 05:16:40;;;;;;;;;0.00;0.00;;;;;10.87;73.01;101481.22;5114510;27;45474;-70
2023/12/23 05:19:05;;;;;;;;;2.00;0.00;;;;;10.95;72.11;101487.47;5118269;27;47503;-71
2023/12/23 05:21:31;;;;;;;;;4.00;0.00;;;;;10.90;72.50;101478.69;5117731;27;45377;-77
2023/12/23 05:23:57;;;;;;;;;3.00;0.00;;;;;10.88;71.77;101481.28;5117725;27;45436;-72
2023/12/23 05:26:23;;;;;;;;;0.00;0.00;;;;;10.94;72.14;101483.97;5105731;27;45471;-65
2023/12/23 05:29:21;;;;;;;;;0.33;0.00;;;;;10.94;71.72;101481.34;5114685;27;46165;-66
2023/12/23 05:31:47;;;;;;;;;0.00;0.00;;;;;10.92;71.11;101475.22;5103710;27;45602;-64
2023/12/23 05:34:13;;;;;;;;;0.00;0.00;;;;;10.93;71.09;101462.97;5111887;27;45396;-66
2023/12/23 05:36:38;;;;;;;;;0.00;0.00;;;;;10.77;70.94;101447.09;5107436;27;46629;-66
2023/12/23 05:39:06;;;;;;;;;0.67;0.67;;;;;10.83;70.45;101460.25;5101958;27;45428;-65
2023/12/23 05:41:31;;;;;;;;;0.00;0.00;;;;;10.76;69.93;101453.16;5097145;27;45308;-66
2023/12/23 05:43:57;;;;;;;;;0.00;0.00;;;;;10.86;69.82;101469.00;5112379;27;45450;-64
2023/12/23 05:46:23;;;;;;;;;1.00;1.00;;;;;10.77;70.03;101438.31;5118658;27;45386;-65
2023/12/23 05:48:48;;;;;;;;;0.00;0.00;;;;;10.75;69.58;101445.31;5118572;27;45365;-65
2023/12/23 05:51:14;;;;;;;;;4.00;1.00;;;;;10.85;69.95;101473.38;5117194;27;45545;-66
2023/12/23 05:53:39;;;;;;;;;0.00;0.00;;;;;10.85;69.78;101460.28;5107084;27;45387;-65
2023/12/23 05:56:06;;;;;;;;;0.00;0.00;;;;;10.80;69.38;101441.00;5099941;27;45313;-65
2023/12/23 05:58:32;;;;;;;;;2.00;0.00;;;;;10.82;69.08;101444.53;5098093;27;45527;-66
2023/12/23 06:00:58;;;;;;;;;2.00;0.00;;;;;10.88;69.00;101467.28;5101241;27;45473;-66
2023/12/23 06:03:27;;;;;;;;;0.00;0.00;;;;;10.83;69.12;101443.66;5103941;27;45444;-65
2023/12/23 06:05:52;;;;;;;;;2.33;2.00;;;;;10.89;69.19;101456.84;5108672;27;45592;-66
2023/12/23 06:08:18;;;;;;;;;0.00;0.00;;;;;10.78;68.92;101442.72;5121985;27;45986;-68
2023/12/23 06:10:43;;;;;;;;;0.67;0.33;;;;;10.88;69.03;101468.16;5103368;27;45301;-71
2023/12/23 06:13:33;;;;;;;;;0.00;0.00;;;;;10.77;68.82;101440.94;5106449;27;45858;-69
2023/12/23 06:16:05;;;;;;;;;6.00;0.00;;;;;10.73;68.33;101453.13;5109072;27;45890;-69
2023/12/23 06:18:32;;;;;;;;;0.00;0.00;;;;;10.89;68.19;101474.28;5120130;27;45632;-68
2023/12/23 06:20:57;;;;;;;;;0.00;0.00;;;;;10.63;68.54;101408.44;5120335;27;45462;-74
2023/12/23 06:23:23;;;;;;;;;0.00;0.00;;;;;10.73;68.49;101447.91;5118004;27;45443;-77
2023/12/23 06:25:53;;;;;;;;;0.00;0.00;;;;;10.93;68.15;101484.81;5119009;27;45455;-77
2023/12/23 06:28:18;;;;;;;;;1.00;1.00;;;;;10.71;68.13;101446.13;5118106;27;45559;-68
2023/12/23 06:30:44;;;;;;;;;2.00;0.67;;;;;10.80;67.90;101473.31;5120646;27;45543;-73
2023/12/23 06:33:15;;;;;;;;;1.00;0.00;;;;;10.88;68.70;101498.75;5121712;27;45525;-65
2023/12/23 06:35:44;;;;;;;;;0.67;0.00;;;;;10.63;68.48;101452.97;5122077;27;45451;-64
2023/12/23 06:38:10;;;;;;;;;0.00;0.00;;;;;10.74;68.59;101461.88;5120661;27;45559;-75
2023/12/23 06:40:46;;;;;;;;;3.00;0.00;;;;;10.91;68.97;101499.66;5121039;27;45395;-74
2023/12/23 06:43:11;;;;;;;;;0.00;0.00;;;;;10.46;68.01;101411.72;5120826;27;45559;-71
2023/12/23 06:45:37;;;;;;;;;0.33;0.33;;;;;10.62;68.34;101425.91;5121441;27;45348;-70
2023/12/23 06:48:03;;;;;;;;;1.00;0.00;;;;;10.83;68.41;101469.84;5121600;27;46215;-76
2023/12/23 06:50:29;;;;;;;;;0.00;0.00;;;;;10.69;68.59;101438.22;5121857;27;45529;-68
2023/12/23 06:52:54;;;;;;;;;1.00;0.00;;;;;10.92;68.34;101480.47;5120690;27;45469;-66
2023/12/23 06:55:20;;;;;;;;;0.33;0.00;;;;;10.94;68.38;101478.75;5120555;27;45245;-70
2023/12/23 06:57:54;;;;;;;;;3.00;0.00;;;;;10.73;68.37;101439.16;5120020;27;46943;-65
2023/12/23 07:00:20;;;;;;;;;0.00;0.00;;;;;10.94;68.51;101481.34;5122069;27;45465;-77
2023/12/23 07:02:51;;;;;;;;;0.00;0.00;;;;;10.90;68.71;101486.53;5122782;27;45367;-72
2023/12/23 07:05:34;;;;;;;;;1.67;0.00;;;;;10.54;68.57;101436.28;5123385;27;45458;-71
2023/12/23 07:08:00;;;;;;;;;1.67;1.00;;;;;10.72;68.75;101466.22;5121946;27;45645;-72
2023/12/23 07:10:26;;;;;;;;;4.00;0.00;;;;;10.92;68.63;101514.53;5120586;27;45348;-67
2023/12/23 07:12:52;;;;;;;;;0.00;0.00;;;;;10.89;68.61;101493.53;5119926;27;45392;-65
2023/12/23 07:15:18;;;;;;;;;1.33;0.00;;;;;10.86;68.61;101497.84;5120369;27;45328;-65
2023/12/23 07:17:43;;;;;;;;;1.00;0.00;;;;;10.94;68.45;101502.31;5113436;27;45471;-68
2023/12/23 07:20:09;;;;;;;;;0.00;0.00;;;;;10.73;68.96;101460.13;5119416;27;45297;-67
2023/12/23 07:22:35;;;;;;;;;0.00;0.00;;;;;10.95;68.47;101506.69;5119935;27;45293;-67
2023/12/23 07:25:01;;;;;;;;;2.33;0.00;;;;;10.94;69.09;101502.31;5120505;27;45442;-66
2023/12/23 07:27:27;;;;;;;;;1.67;0.00;;;;;10.92;68.66;101511.91;5118567;27;45367;-66
2023/12/23 07:29:53;;;;;;;;;0.00;0.00;;;;;10.80;69.12;101480.31;5119778;27;45358;-66
2023/12/23 07:32:20;;;;;;;;;0.00;0.00;;;;;10.94;68.53;101509.28;5119579;27;45755;-67
2023/12/23 07:34:48;;;;;;;;;3.00;0.00;;;;;11.00;68.60;101525.09;5120036;27;45379;-66
2023/12/23 07:37:14;;;;;;;;;2.33;1.00;;;;;10.44;68.29;101434.44;5119779;27;45956;-65
2023/12/23 07:39:40;;;;;;;;;0.00;0.00;;;;;10.92;68.34;101508.41;5119708;27;45360;-66
2023/12/23 07:42:06;;;;;;;;;0.00;0.00;;;;;11.02;68.66;101523.38;5120120;27;45367;-65
2023/12/23 07:44:36;;;;;;;;;0.00;0.00;;;;;10.52;68.40;101447.63;5119453;27;45897;-66
2023/12/23 07:47:04;;;;;;;;;2.67;2.33;;;;;11.03;68.39;101533.91;5117953;27;47117;-65
2023/12/23 07:49:32;;;;;;;;;0.67;0.67;;;;;10.84;68.58;101503.03;5118967;27;45473;-70
2023/12/23 07:51:58;;;;;;;;;0.00;0.00;;;;;10.89;68.65;101519.75;5121116;27;45376;-70
2023/12/23 07:54:25;;;;;;;;;1.67;0.67;;;;;10.92;68.67;101525.00;5121185;27;45741;-70
2023/12/23 07:56:52;;;;;;;;;1.67;0.00;;;;;11.07;68.90;101528.69;5119290;27;46966;-70
2023/12/23 07:59:18;;;;;;;;;0.33;0.33;;;;;10.39;68.32;101410.78;5119683;27;45419;-73
2023/12/23 08:01:45;;;;;;;;;0.00;0.00;;;;;10.89;68.40;101500.47;5119744;27;45646;-67
2023/12/23 08:04:12;;;;;;;;;6.00;0.00;;;;;11.10;68.71;101523.47;5119952;27;45348;-65
2023/12/23 08:06:38;;;;;;;;;1.00;0.00;;;;;11.09;68.43;101516.50;5120102;27;45618;-66
2023/12/23 08:09:04;;;;;;;;;1.00;0.00;;;;;10.83;69.02;101477.72;5117824;27;45346;-74
2023/12/23 08:11:30;;;;;;;;;1.00;0.00;;;;;10.98;68.56;101490.13;5119750;27;45518;-75
2023/12/23 08:13:56;;;;;;;;;0.00;0.00;;;;;10.89;68.99;101472.56;5119372;27;45305;-75
2023/12/23 08:16:25;;;;;;;;;0.00;0.00;;;;;11.01;68.79;101487.56;5120198;27;46519;-66
2023/12/23 08:18:50;;;;;;;;;0.00;0.00;;;;;11.01;69.13;101490.19;5119930;27;45440;-69
2023/12/23 08:21:16;;;;;;;;;0.00;0.00;;;;;11.08;69.24;101497.25;5119234;27;45449;-70
2023/12/23 08:23:42;;;;;;;;;2.00;0.00;;;;;10.99;68.66;101508.50;5119826;27;45332;-70
2023/12/23 08:26:08;;;;;;;;;0.00;0.00;;;;;11.16;69.59;101520.94;5119930;27;46278;-71
2023/12/23 08:28:34;;;;;;;;;2.00;0.00;;;;;11.06;69.10;101508.56;5119102;27;45402;-65
2023/12/23 08:31:02;;;;;;;;;0.33;0.33;;;;;11.04;69.47;101509.44;5118368;27;45541;-66
2023/12/23 08:33:28;;;;;;;;;2.00;0.00;;;;;11.11;69.14;101513.03;5118653;27;45438;-68
2023/12/23 08:35:54;;;;;;;;;1.00;0.33;;;;;11.09;69.07;101517.34;5118427;27;45817;-69
2023/12/23 08:38:21;;;;;;;;;1.67;1.67;;;;;11.17;68.97;101544.53;5108099;27;45837;-66
2023/12/23 08:40:47;;;;;;;;;1.00;1.00;;;;;11.21;68.92;101545.47;5102832;27;45321;-65
2023/12/23 08:43:12;;;;;;;;;0.67;0.00;;;;;11.15;69.74;101548.91;5108438;27;45475;-69
2023/12/23 08:45:38;;;;;;;;;0.00;0.00;;;;;11.04;69.30;101527.78;5113386;27;46098;-70
2023/12/23 08:48:04;;;;;;;;;0.00;0.00;;;;;11.14;69.25;101552.38;5110311;27;45793;-75
2023/12/23 08:50:30;;;;;;;;;2.67;0.00;;;;;11.14;68.96;101548.88;5101293;27;45519;-76
2023/12/23 08:53:03;;;;;;;;;2.00;0.00;;;;;10.90;69.39;101497.03;5108856;27;47088;-68
2023/12/23 08:55:28;;;;;;;;;1.00;0.00;;;;;11.16;69.22;101547.16;5114745;27;46719;-68
2023/12/23 08:57:54;;;;;;;;;0.00;0.00;;;;;11.30;69.37;101574.44;5115607;27;45484;-67
2023/12/23 09:00:38;;;;;;;;;2.00;0.00;;;;;11.31;69.55;101575.31;5114730;27;45621;-67
2023/12/23 09:03:05;;;;;;;;;1.00;0.00;;;;;11.31;69.37;101565.69;5102221;27;45808;-66
2023/12/23 09:05:31;;;;;;;;;0.33;0.33;;;;;11.34;68.85;101562.22;5109390;27;46112;-67
2023/12/23 09:07:57;;;;;;;;;3.00;1.67;;;;;11.35;69.23;101564.88;5107990;27;45750;-67
2023/12/23 09:10:22;;;;;;;;;0.33;0.33;;;;;11.33;68.92;101563.97;5114640;27;45598;-64
2023/12/23 09:12:48;;;;;;;;;2.33;1.00;;;;;11.25;69.04;101519.31;5112988;27;45491;-66
2023/12/23 09:15:14;;;;;;;;;2.33;0.00;;;;;11.12;69.59;101520.00;5104117;27;45510;-68
2023/12/23 09:18:06;;;;;;;;;1.00;0.33;;;;;11.26;69.34;101551.66;5117302;27;45495;-66
2023/12/23 09:20:32;;;;;;;;;1.33;0.00;;;;;11.22;69.85;101540.25;5112472;27;45399;-65
2023/12/23 09:22:59;;;;;;;;;0.00;0.00;;;;;11.38;69.82;101564.91;5117987;27;45362;-66
2023/12/23 09:25:29;;;;;;;;;2.00;1.00;;;;;10.96;69.21;101471.78;5119208;27;45498;-65
2023/12/23 09:27:55;;;;;;;;;1.00;0.00;;;;;11.49;69.55;101559.78;5104043;27;45530;-65
2023/12/23 09:30:21;;;;;;;;;0.00;0.00;;;;;11.54;68.97;101568.59;5113767;27;45498;-66
2023/12/23 09:32:46;;;;;;;;;1.00;0.00;;;;;11.44;69.57;101543.13;5118683;27;45438;-65
2023/12/23 09:35:12;;;;;;;;;1.00;1.00;;;;;11.58;69.50;101575.66;5115651;27;45442;-66
2023/12/23 09:37:41;;;;;;;;;3.00;1.00;;;;;11.37;69.36;101538.69;5115745;27;45434;-69
2023/12/23 09:40:08;;;;;;;;;0.67;0.67;;;;;11.41;69.63;101537.81;5100358;27;45333;-66
2023/12/23 09:42:34;;;;;;;;;0.00;0.00;;;;;11.56;69.57;101564.25;5103726;27;45306;-67
2023/12/23 09:45:24;;;;;;;;;0.00;0.00;;;;;11.60;69.88;101560.81;5109966;27;45582;-71
2023/12/23 09:47:49;;;;;;;;;1.00;1.00;;;;;11.43;69.53;101507.25;5114408;27;45439;-67
2023/12/23 09:50:15;;;;;;;;;1.33;0.00;;;;;11.64;69.70;101551.22;5109732;27;45336;-65
2023/12/23 09:52:41;;;;;;;;;5.00;1.00;;;;;11.64;69.81;101525.84;5117825;27;45575;-68
2023/12/23 09:55:11;;;;;;;;;0.00;0.00;;;;;11.49;70.14;101514.31;5118566;27;45886;-72
2023/12/23 09:57:37;;;;;;;;;2.67;0.33;;;;;11.09;70.16;101449.19;5114664;27;45487;-70
2023/12/23 10:00:04;;;;;;;;;0.00;0.00;;;;;11.67;70.49;101548.59;5102673;27;45518;-78
2023/12/23 10:02:29;;;;;;;;;2.67;0.33;;;;;11.62;70.11;101545.06;5107283;27;45607;-71
2023/12/23 10:04:55;;;;;;;;;1.00;0.00;;;;;11.35;70.79;101490.56;5114766;27;46134;-71
2023/12/23 10:07:21;;;;;;;;;0.00;0.00;;;;;11.61;70.81;101527.56;5122318;27;45340;-76
2023/12/23 10:09:50;;;;;;;;;0.67;0.00;;;;;11.55;70.81;101509.13;5122057;27;45396;-71
2023/12/23 10:12:23;;;;;;;;;4.00;1.00;;;;;11.65;70.34;101530.25;5122520;27;45815;-72
2023/12/23 10:14:49;;;;;;;;;0.67;0.67;;;;;11.74;70.34;101537.31;5109440;27;46009;-65
2023/12/23 10:17:17;;;;;;;;;1.00;0.00;;;;;11.76;70.70;101537.34;5103989;27;46162;-72
2023/12/23 10:19:57;;;;;;;;;1.67;0.00;;;;;11.68;70.10;101527.63;5115123;27;45414;-67
2023/12/23 10:22:44;;;;;;;;;1.00;1.00;;;;;11.70;70.10;101526.75;5117187;27;45444;-68
2023/12/23 10:25:10;;;;;;;;;1.33;1.00;;;;;11.73;70.60;101548.69;5113067;27;46826;-71
2023/12/23 10:27:40;;;;;;;;;0.67;0.67;;;;;11.57;70.53;101517.91;5112528;27;45583;-75
2023/12/23 10:30:10;;;;;;;;;2.67;0.33;;;;;11.73;70.41;101545.19;5117126;27;45395;-76
2023/12/23 10:32:37;;;;;;;;;1.00;1.00;;;;;11.65;70.82;101526.72;5120215;27;45628;-67
2023/12/23 10:35:06;;;;;;;;;2.00;1.00;;;;;11.73;70.78;101530.31;5113819;27;46766;-70
2023/12/23 10:37:33;;;;;;;;;2.33;0.00;;;;;11.86;70.63;101558.44;5119781;27;45557;-70
2023/12/23 10:40:14;;;;;;;;;1.00;0.67;;;;;11.36;70.63;101456.47;5121212;27;45244;-71
2023/12/23 10:42:43;;;;;;;;;6.00;4.75;;;;;11.68;71.25;101497.91;5120797;27;45571;-76
2023/12/23 10:45:11;;;;;;;;;1.00;1.00;;;;;11.64;71.74;101483.84;5114020;27;45426;-70
2023/12/23 10:47:38;;;;;;;;;0.33;0.33;;;;;11.93;70.86;101532.28;5123569;27;45429;-74
2023/12/23 10:50:05;;;;;;;;;3.00;1.33;;;;;11.88;72.11;101513.84;5122312;27;45479;-71
2023/12/23 10:52:32;;;;;;;;;2.67;1.00;;;;;11.92;71.09;101517.41;5122253;27;45241;-72
2023/12/23 10:55:02;;;;;;;;;1.67;1.00;;;;;11.72;73.15;101469.94;5118318;27;46493;-78
2023/12/23 10:57:30;;;;;;;;;3.00;1.00;;;;;12.09;74.79;101513.16;5115457;27;45500;-76
2023/12/23 10:59:56;;;;;;;;;5.67;2.67;;;;;12.22;74.13;101520.28;5124842;27;45252;-73
2023/12/23 11:02:31;;;;;;;;;4.00;2.33;;;;;12.36;77.02;101520.38;5122077;27;45512;-74
2023/12/23 11:05:01;;;;;;;;;1.00;1.00;;;;;11.90;73.27;101414.13;5117283;27;48128;-72
2023/12/23 11:07:43;;;;;;;;;1.33;1.33;;;;;11.86;74.18;101389.56;5122363;27;45415;-72
2023/12/23 11:10:11;;;;;;;;;3.33;1.00;;;;;12.34;73.00;101480.09;5122944;27;45309;-74
2023/12/23 11:12:39;;;;;;;;;3.33;2.00;;;;;12.66;71.39;101510.94;5121800;27;45708;-71
2023/12/23 11:15:06;;;;;;;;;3.00;1.00;;;;;12.23;70.79;101435.34;5121086;27;46982;-68
2023/12/23 11:17:32;;;;;;;;;0.33;0.33;;;;;12.57;70.68;101500.38;5123948;27;45503;-71
2023/12/23 11:19:59;;;;;;;;;1.00;1.00;;;;;11.69;70.90;101363.19;5122635;27;45355;-70
2023/12/23 11:22:29;;;;;;;;;2.00;0.67;;;;;12.25;70.43;101467.78;5118575;27;45638;-70
2023/12/23 11:24:55;;;;;;;;;2.00;0.00;;;;;12.17;70.33;101445.84;5124564;27;46505;-74